METAR Data
IDs: Format: Raw Decoded Include TAF

Data at: 1715 UTC 21 Sep 2018

KRFI 211655Z AUTO 17006KT 10SM -RA BKN095 29/25 A3002 RMK AO2 LTG DSNT E T02920253
KRFI 211635Z AUTO 17004KT 10SM -RA BKN085 28/24 A3003 RMK AO2 LTG DSNT SE T02750238
KRFI 211615Z AUTO 16004KT 10SM SCT031 SCT050 BKN085 27/23 A3004 RMK AO2 T02700229
KRFI 211555Z AUTO 15007KT 10SM -DZ SCT012 BKN029 OVC110 27/24 A3003 RMK AO2 T02700240
KRFI 211455Z AUTO 14007KT 10SM SCT012 SCT034 OVC110 27/25 A3002 RMK AO2 T02670246
KRFI 211435Z AUTO 15007KT 10SM BKN110 27/25 A3002 RMK AO2 T02650245
KRFI 211415Z AUTO 15005KT 10SM BKN110 26/24 A3002 RMK AO2 T02610243
KRFI 211355Z AUTO 15004KT 10SM SCT120 26/24 A3002 RMK AO2 T02590243
KRFI 211335Z AUTO 14003KT 10SM SCT120 25/24 A3002 RMK AO2 T02500241
KRFI 211315Z AUTO 14003KT 10SM OVC110 25/24 A3002 RMK AO2 T02460238
KRFI 211255Z AUTO 00000KT 10SM OVC110 24/24 A3002 RMK AO2 T02430237
KRFI 211235Z AUTO 00000KT 10SM OVC110 24/24 A3000 RMK AO2 T02400235
KRFI 211215Z AUTO 00000KT 10SM OVC110 24/24 A3000 RMK AO2 T02400235
KRFI 211155Z AUTO 00000KT 10SM OVC110 24/24 A3000 RMK AO2 T02400235 10240 20232
KRFI 211135Z AUTO 00000KT 10SM OVC110 24/23 A3000 RMK AO2 T02400233
KRFI 211115Z AUTO 00000KT 10SM OVC110 24/23 A3000 RMK AO2 T02400233
KRFI 211055Z AUTO 00000KT 10SM OVC110 24/23 A2999 RMK AO2 T02380232
KRFI 211035Z AUTO 00000KT 10SM OVC120 24/23 A2999 RMK AO2 T02380231
KRFI 211015Z AUTO 00000KT 10SM BKN120 24/23 A2999 RMK AO2 T02380231
KRFI 210955Z AUTO 00000KT 10SM BKN120 24/23 A2999 RMK AO2 T02370230
KRFI 210935Z AUTO 00000KT 10SM SCT120 24/23 A2998 RMK AO2 T02370230
KRFI 210915Z AUTO 00000KT 10SM SCT120 24/23 A2998 RMK AO2 T02360230
KRFI 210855Z AUTO 00000KT 10SM CLR 24/23 A2998 RMK AO2 T02350228
KRFI 210835Z AUTO 00000KT 10SM SCT120 24/23 A2998 RMK AO2 T02350226
KRFI 210815Z AUTO 00000KT 10SM SCT120 23/23 A2998 RMK AO2 T02340225
KRFI 210755Z AUTO 00000KT 10SM CLR 23/23 A2998 RMK AO2 T02330225
KRFI 210735Z AUTO 17003KT 10SM CLR 23/22 A2998 RMK AO2 T02330222
KRFI 210715Z AUTO 00000KT 10SM CLR 23/22 A2998 RMK AO2 T02320221
KRFI 210655Z AUTO 17003KT 10SM CLR 23/22 A2998 RMK AO2 T02340220
KRFI 210635Z AUTO 16003KT 10SM CLR 24/22 A2998 RMK AO2 T02350221
KRFI 210615Z AUTO 15003KT 10SM CLR 24/22 A2999 RMK AO2 T02350221
KRFI 210555Z AUTO 00000KT 10SM CLR 23/22 A2999 RMK AO2 T02330220 10278 20233 403230205
KRFI 210535Z AUTO 00000KT 10SM CLR 24/22 A2998 RMK AO2 T02360220
KRFI 210515Z AUTO 17003KT 10SM CLR 24/22 A2999 RMK AO2 T02350220
KRFI 210455Z AUTO 00000KT 10SM CLR 24/22 A2999 RMK AO2 T02370220
KRFI 210435Z AUTO 00000KT 10SM CLR 24/22 A2999 RMK AO2 T02380221
KRFI 210415Z AUTO 00000KT 10SM SCT075 24/22 A3000 RMK AO2 T02400222
KRFI 210355Z AUTO 00000KT 10SM SCT075 SCT090 24/22 A2999 RMK AO2 T02420222
KRFI 210335Z AUTO 00000KT 10SM CLR 25/22 A2999 RMK AO2 T02470220
KRFI 210315Z AUTO 18006KT 10SM -RA CLR 25/23 A3000 RMK AO2 T02520227
KRFI 210255Z AUTO 17005KT 10SM CLR 26/23 A2999 RMK AO2 T02560232
KRFI 210235Z AUTO 18005KT 10SM -RA CLR 26/23 A2999 RMK AO2 T02610232
KRFI 210215Z AUTO 00000KT 10SM -RA CLR 25/23 A2999 RMK AO2 T02540231
KRFI 210155Z AUTO 00000KT 10SM SCT044 26/23 A2997 RMK AO2 T02610231
KRFI 210135Z AUTO 00000KT 10SM SCT044 26/23 A2997 RMK AO2 LTG DSNT S T02590229
KRFI 210115Z AUTO 00000KT 10SM CLR 26/24 A2995 RMK AO2 LTG DSNT S T02600235
KRFI 210055Z AUTO 00000KT 10SM CLR 26/24 A2994 RMK AO2 LTG DSNT S T02570235
KRFI 210035Z AUTO 00000KT 10SM CLR 26/23 A2993 RMK AO2 LTG DSNT S T02630230
KRFI 210015Z AUTO 00000KT 10SM CLR 28/23 A2992 RMK AO2 LTG DSNT S T02750225
KRFI 202355Z AUTO 17003KT 10SM CLR 28/23 A2992 RMK AO2 LTG DSNT W T02770226 10323 20277
KRFI 202335Z AUTO 15004KT 10SM CLR 29/23 A2992 RMK AO2 T02860225
KRFI 202315Z AUTO 15004KT 10SM CLR 29/23 A2993 RMK AO2 T02910225
KRFI 202255Z AUTO 16004KT 10SM CLR 30/22 A2993 RMK AO2 T02950224
KRFI 202235Z AUTO 16005KT 10SM CLR 30/22 A2993 RMK AO2 T02970222
KRFI 202215Z AUTO 16006KT 10SM CLR 30/22 A2994 RMK AO2 T03010221
KRFI 202155Z AUTO 16006KT 10SM CLR 31/22 A2994 RMK AO2 LTG DSNT SW T03090219
KRFI 202115Z AUTO 15006KT 10SM CLR 32/21 A2993 RMK AO2 T03210214
KRFI 202055Z AUTO 17006KT 10SM CLR 32/22 A2994 RMK AO2 T03190216
KRFI 202035Z AUTO 14009G14KT 10SM CLR 32/22 A2994 RMK AO2 T03170218
KRFI 202015Z AUTO 17005KT 10SM CLR 31/22 A2995 RMK AO2 T03140219
KRFI 201955Z AUTO 18007KT 10SM SCT044 SCT070 32/22 A2996 RMK AO2 LTG DSNT W T03190221
KRFI 201935Z AUTO 15007KT 10SM BKN044 BKN050 BKN070 32/22 A2997 RMK AO2 T03160223
KRFI 201915Z AUTO 16004KT 10SM BKN044 BKN050 31/22 A2997 RMK AO2 T03100220
KRFI 201855Z AUTO 16003KT 10SM SCT039 SCT050 BKN055 31/22 A2998 RMK AO2 T03120221
KRFI 201835Z AUTO 21003KT 10SM SCT039 SCT048 31/22 A2999 RMK AO2 T03070218
KRFI 201815Z AUTO 18008KT 10SM SCT039 31/22 A3000 RMK AO2 T03130220
KRFI 201755Z AUTO 17006G14KT 10SM SCT037 31/22 A3001 RMK AO2 T03090219 10311 20213
KRFI 201735Z AUTO 23005KT 10SM SCT033 30/22 A3002 RMK AO2 T03040222
KRFI 201715Z AUTO 00000KT 10SM CLR 30/22 A3002 RMK AO2 T02990222
KRFI 201655Z AUTO 17007KT 10SM SCT023 30/22 A3003 RMK AO2 T02980221
KRFI 201635Z AUTO 00000KT 10SM SCT023 29/23 A3004 RMK AO2 T02920232
KRFI 201615Z AUTO 00000KT 10SM SCT018 29/23 A3004 RMK AO2 T02870233
KRFI 201555Z AUTO 18004KT 10SM SCT018 28/23 A3004 RMK AO2 T02770232
KRFI 201535Z AUTO 19005KT 10SM SCT016 28/23 A3004 RMK AO2 T02800229
KRFI 201515Z AUTO 00000KT 10SM CLR 27/23 A3004 RMK AO2 T02730232
KRFI 201455Z AUTO 18003KT 10SM CLR 27/23 A3003 RMK AO2 T02700234
KRFI 201435Z AUTO 00000KT 10SM SCT010 26/24 A3002 RMK AO2 T02640237
KRFI 201355Z AUTO 00000KT 10SM CLR 25/23 A3001 RMK AO2 T02460234
KRFI 201315Z AUTO 00000KT 7SM CLR 23/23 A3000 RMK AO2 T02320225
KRFI 201255Z AUTO 00000KT 7SM CLR 23/22 A3000 RMK AO2 T02250220
KRFI 201235Z AUTO 00000KT 7SM CLR 22/21 A3000 RMK AO2 T02160214
KRFI 201215Z AUTO 00000KT 7SM CLR 21/21 A2999 RMK AO2 T02140211
KRFI 201155Z AUTO 00000KT 7SM CLR 22/22 A2998 RMK AO2 70073 T02170215 10220 20205
KRFI 201135Z AUTO 00000KT 7SM CLR 22/21 A2998 RMK AO2 T02170214
KRFI 201115Z AUTO 00000KT 7SM CLR 22/22 A2997 RMK AO2 T02200215
KRFI 201055Z AUTO 00000KT 7SM CLR 22/21 A2997 RMK AO2 T02170213
KRFI 201035Z AUTO 00000KT 7SM CLR 22/21 A2997 RMK AO2 T02160213
KRFI 201015Z AUTO 00000KT 10SM CLR 22/21 A2997 RMK AO2 T02170213
KRFI 200955Z AUTO 00000KT 10SM CLR 21/21 A2997 RMK AO2 T02140211
KRFI 200935Z AUTO 00000KT 10SM CLR 21/21 A2996 RMK AO2 T02120210
KRFI 200915Z AUTO 00000KT 10SM CLR 21/21 A2996 RMK AO2 T02100206
KRFI 200855Z AUTO 00000KT 10SM CLR 21/21 A2996 RMK AO2 T02120209
KRFI 200835Z AUTO 00000KT 10SM CLR 21/21 A2996 RMK AO2 T02110206
KRFI 200815Z AUTO 00000KT 10SM CLR 21/21 A2997 RMK AO2 T02100205
KRFI 200755Z AUTO 00000KT 10SM CLR 21/21 A2996 RMK AO2 T02100206
KRFI 200735Z AUTO 00000KT 10SM CLR 21/20 A2997 RMK AO2 T02070204
KRFI 200715Z AUTO 00000KT 10SM CLR 21/20 A2997 RMK AO2 T02090202
KRFI 200655Z AUTO 00000KT 10SM CLR 21/20 A2997 RMK AO2 T02090202
KRFI 200635Z AUTO 00000KT 10SM CLR 21/20 A2997 RMK AO2 T02100202
KRFI 200615Z AUTO 00000KT 10SM CLR 21/20 A2997 RMK AO2 T02130200
KRFI 200555Z AUTO 00000KT 10SM CLR 22/20 A2997 RMK AO2 60073 T02150200 10314 20211 403500211
KRFI 200535Z AUTO 15005KT 10SM CLR 22/21 A2997 RMK AO2 T02150205